createdAt,value
2019-03-05T00:01:02.750Z,100064.06
2019-03-05T00:03:32.480Z,100072.42
2019-03-05T00:06:02.101Z,100068.35
2019-03-05T00:08:31.834Z,100057.84
2019-03-05T00:11:01.557Z,100066.35
2019-03-05T00:13:31.294Z,100063.40
2019-03-05T00:16:00.920Z,100060.41
2019-03-05T00:18:30.703Z,100055.66
2019-03-05T00:21:00.289Z,100051.98
2019-03-05T00:23:47.509Z,100044.87
2019-03-05T00:26:29.302Z,100052.66
2019-03-05T00:29:07.924Z,100061.16
2019-03-05T00:31:45.739Z,100057.44
2019-03-05T00:34:27.433Z,100056.67
2019-03-05T00:37:09.339Z,100045.78
2019-03-05T00:39:44.786Z,100061.13
2019-03-05T00:42:49.548Z,100052.67
2019-03-05T00:45:41.946Z,100047.15
2019-03-05T00:48:39.073Z,100048.62
2019-03-05T00:51:25.060Z,100055.06
2019-03-05T00:54:13.403Z,100056.12
2019-03-05T00:56:46.315Z,100058.88
2019-03-05T00:59:37.620Z,100062.19
2019-03-05T01:02:28.352Z,100057.75
2019-03-05T01:05:06.945Z,100072.47
2019-03-05T01:07:36.682Z,100068.47
2019-03-05T01:10:07.600Z,100071.28
2019-03-05T01:12:37.268Z,100067.25
2019-03-05T01:15:08.679Z,100068.84
2019-03-05T01:17:39.994Z,100060.36
2019-03-05T01:20:12.189Z,100066.27
2019-03-05T01:22:41.909Z,100054.92
2019-03-05T01:25:29.688Z,100043.63
2019-03-05T01:27:59.374Z,100058.55
2019-03-05T01:30:54.262Z,100055.67
2019-03-05T01:33:25.515Z,100060.33
2019-03-05T01:35:59.478Z,100061.48
2019-03-05T01:38:30.910Z,100083.30
2019-03-05T01:41:02.186Z,100056.00
2019-03-05T01:43:31.911Z,100068.73
2019-03-05T01:46:01.535Z,100056.62
2019-03-05T01:48:31.277Z,100040.39
2019-03-05T01:51:01.102Z,100042.36
2019-03-05T01:53:30.828Z,100039.67
2019-03-05T01:56:00.463Z,100041.20
2019-03-05T01:58:30.190Z,100035.10
2019-03-05T02:00:59.914Z,100032.76
2019-03-05T02:03:29.644Z,100024.03
2019-03-05T02:05:59.273Z,100024.34
2019-03-05T02:08:28.899Z,100011.55
2019-03-05T02:10:58.639Z,100010.63
2019-03-05T02:13:28.391Z,99994.69
2019-03-05T02:15:58.098Z,100008.20
2019-03-05T02:18:27.917Z,100007.52
2019-03-05T02:20:57.761Z,99998.09
2019-03-05T02:23:43.956Z,99991.06
2019-03-05T02:26:25.750Z,99992.72
2019-03-05T02:29:10.719Z,99987.53
2019-03-05T02:31:53.331Z,99986.37
2019-03-05T02:34:29.110Z,100009.97
2019-03-05T02:37:04.973Z,99994.76
2019-03-05T02:39:43.700Z,99972.74
2019-03-05T02:42:25.600Z,99997.79
2019-03-05T02:45:31.899Z,99990.11
2019-03-05T02:48:07.600Z,99983.38
2019-03-05T02:50:55.396Z,99967.77
2019-03-05T02:53:34.272Z,99969.50
2019-03-05T02:56:16.218Z,99965.45
2019-03-05T02:58:44.998Z,99963.08
2019-03-05T03:01:22.274Z,99965.27
2019-03-05T03:03:53.550Z,99966.30
2019-03-05T03:06:24.705Z,99971.77
2019-03-05T03:09:03.489Z,99966.20
2019-03-05T03:11:34.696Z,99957.46
2019-03-05T03:14:04.333Z,99947.74
2019-03-05T03:16:34.071Z,99954.03
2019-03-05T03:19:03.794Z,99959.63
2019-03-05T03:21:33.590Z,99959.52
2019-03-05T03:24:03.248Z,99949.80
2019-03-05T03:26:32.874Z,99944.20
2019-03-05T03:29:02.509Z,99951.21
2019-03-05T03:31:32.246Z,99936.96
2019-03-05T03:34:01.861Z,99935.80
2019-03-05T03:36:32.506Z,99927.31
2019-03-05T03:39:02.238Z,99928.95
2019-03-05T03:41:33.440Z,99927.90
2019-03-05T03:44:04.582Z,99935.09
2019-03-05T03:46:34.294Z,99942.44
2019-03-05T03:49:04.018Z,99922.70
2019-03-05T03:51:33.758Z,99924.04
2019-03-05T03:54:03.392Z,99921.83
2019-03-05T03:56:33.031Z,99932.33
2019-03-05T03:59:02.762Z,99928.20
2019-03-05T04:01:32.510Z,99938.33
2019-03-05T04:04:02.059Z,99937.70
2019-03-05T04:06:31.834Z,99933.49
2019-03-05T04:09:01.489Z,99934.18
2019-03-05T04:11:32.724Z,99934.18
2019-03-05T04:14:02.571Z,99938.43
2019-03-05T04:16:32.284Z,99925.47
2019-03-05T04:19:03.656Z,99928.47
2019-03-05T04:21:33.187Z,99934.75
2019-03-05T04:24:02.910Z,99923.88
2019-03-05T04:26:32.747Z,99919.42
2019-03-05T04:29:02.489Z,99910.40
2019-03-05T04:31:33.438Z,99919.36
2019-03-05T04:34:03.269Z,99910.52
2019-03-05T04:36:33.098Z,99909.27
2019-03-05T04:39:02.823Z,99912.67
2019-03-05T04:41:34.093Z,99911.52
2019-03-05T04:44:04.934Z,99913.70
2019-03-05T04:46:35.294Z,99917.39
2019-03-05T04:49:13.717Z,99916.30
2019-03-05T04:51:45.076Z,99918.83
2019-03-05T04:54:14.804Z,99933.56
2019-03-05T04:56:44.637Z,99917.88
2019-03-05T04:59:14.366Z,99910.33
2019-03-05T05:01:43.990Z,99902.08
2019-03-05T05:04:13.625Z,99907.21
2019-03-05T05:06:43.246Z,99898.34
2019-03-05T05:09:13.086Z,99898.22
2019-03-05T05:11:42.834Z,99901.63
2019-03-05T05:14:14.084Z,99902.66
2019-03-05T05:16:43.708Z,99905.37
2019-03-05T05:19:13.747Z,99905.02
2019-03-05T05:21:43.507Z,99911.56
2019-03-05T05:24:13.352Z,99887.59
2019-03-05T05:26:43.342Z,99878.67
2019-03-05T05:29:13.072Z,99884.38
2019-03-05T05:31:42.810Z,99866.22
2019-03-05T05:34:12.737Z,99865.38
2019-03-05T05:36:42.478Z,99856.81
2019-03-05T05:39:48.566Z,99848.63
2019-03-05T05:42:18.339Z,99848.09
2019-03-05T05:44:48.068Z,99828.02
2019-03-05T05:47:17.591Z,99830.97
2019-03-05T05:49:47.219Z,99839.60
2019-03-05T05:52:16.961Z,99849.98
2019-03-05T05:54:51.432Z,99842.42
2019-03-05T05:57:26.298Z,99837.17
2019-03-05T06:00:03.870Z,99832.50
2019-03-05T06:02:36.845Z,99833.23
2019-03-05T06:05:08.634Z,99826.98
2019-03-05T06:07:39.482Z,99817.30
2019-03-05T06:10:15.703Z,99829.77
2019-03-05T06:12:45.472Z,99833.32
2019-03-05T06:15:18.231Z,99836.77
2019-03-05T06:17:50.979Z,99820.78
2019-03-05T06:20:21.448Z,99818.67
2019-03-05T06:22:54.247Z,99810.58
2019-03-05T06:25:28.794Z,99840.09
2019-03-05T06:27:58.995Z,99843.61
2019-03-05T06:30:36.010Z,99837.10
2019-03-05T06:33:09.736Z,99829.12
2019-03-05T06:35:41.407Z,99827.09
2019-03-05T06:38:12.227Z,99842.13
2019-03-05T06:40:42.006Z,99837.08
2019-03-05T06:43:11.612Z,99836.16
2019-03-05T06:45:42.643Z,99828.00
2019-03-05T06:48:12.481Z,99834.08
2019-03-05T06:50:42.105Z,99825.56
2019-03-05T06:53:12.246Z,99829.69
2019-03-05T06:55:41.975Z,99822.77
2019-03-05T06:58:12.052Z,99804.52
2019-03-05T07:00:42.359Z,99801.20
2019-03-05T07:03:12.086Z,99788.06
2019-03-05T07:06:18.708Z,99775.69
2019-03-05T07:09:00.232Z,99776.39
2019-03-05T07:11:58.912Z,99769.11
2019-03-05T07:14:57.787Z,99774.27
2019-03-05T07:17:33.270Z,99763.33
2019-03-05T07:20:10.234Z,99767.70
2019-03-05T07:22:53.152Z,99742.05
2019-03-05T07:25:22.884Z,99738.48
2019-03-05T07:27:52.613Z,99772.52
2019-03-05T07:30:22.147Z,99764.73
2019-03-05T07:32:51.875Z,99764.36
2019-03-05T07:35:22.315Z,99736.09
2019-03-05T07:37:52.046Z,99744.72
2019-03-05T07:40:21.680Z,99751.33
2019-03-05T07:42:51.414Z,99733.69
2019-03-05T07:45:21.134Z,99744.35
2019-03-05T07:47:51.889Z,99722.66
2019-03-05T07:50:21.516Z,99747.48
2019-03-05T07:52:51.043Z,99744.36
2019-03-05T07:55:20.772Z,99731.30
2019-03-05T07:57:51.533Z,99730.75
2019-03-05T08:00:21.164Z,99706.91
2019-03-05T08:02:50.880Z,99733.06
2019-03-05T08:05:20.725Z,99719.87
2019-03-05T08:07:50.450Z,99727.03
2019-03-05T08:10:26.061Z,99731.82
2019-03-05T08:13:05.569Z,99724.15
2019-03-05T08:16:08.119Z,99716.13
2019-03-05T08:18:39.385Z,99713.73
2019-03-05T08:21:09.309Z,99707.11
2019-03-05T08:23:38.789Z,99723.69
2019-03-05T08:26:08.340Z,99706.84
2019-03-05T08:28:38.180Z,99714.50
2019-03-05T08:31:07.822Z,99713.86
2019-03-05T08:33:37.533Z,99719.14
2019-03-05T08:36:10.044Z,99696.91
2019-03-05T08:38:39.774Z,99695.05
2019-03-05T08:41:09.264Z,99688.02
2019-03-05T08:43:39.339Z,99680.78
2019-03-05T08:46:09.067Z,99676.58
2019-03-05T08:48:38.904Z,99663.78
2019-03-05T08:51:10.165Z,99661.20
2019-03-05T08:53:49.236Z,99664.16
2019-03-05T08:56:11.364Z,99668.11
2019-03-05T08:58:41.092Z,99663.27
2019-03-05T09:01:10.819Z,99675.39
2019-03-05T09:03:40.559Z,99673.09
2019-03-05T09:06:10.389Z,99672.80
2019-03-05T09:08:40.013Z,99692.32
2019-03-05T09:11:09.846Z,99667.95
2019-03-05T09:13:39.677Z,99650.39
2019-03-05T09:16:09.515Z,99656.50
2019-03-05T09:18:39.157Z,99664.60
2019-03-05T09:21:08.801Z,99668.77
2019-03-05T09:23:39.039Z,99641.08
2019-03-05T09:26:08.642Z,99635.83
2019-03-05T09:28:38.374Z,99640.73
2019-03-05T09:31:08.103Z,99640.73
2019-03-05T09:33:37.832Z,99640.03
2019-03-05T09:36:07.582Z,99614.89
2019-03-05T09:38:38.413Z,99613.34
2019-03-05T09:41:08.061Z,99615.79
2019-03-05T09:43:37.619Z,99605.53
2019-03-05T09:46:07.500Z,99596.80
2019-03-05T09:48:37.137Z,99599.00
2019-03-05T09:51:06.873Z,99585.14
2019-03-05T09:53:36.687Z,99599.88
2019-03-05T09:56:06.422Z,99583.23
2019-03-05T09:58:37.179Z,99569.44
2019-03-05T10:01:07.109Z,99563.55
2019-03-05T10:03:36.738Z,99571.16
2019-03-05T10:06:06.463Z,99560.75
2019-03-05T10:08:36.097Z,99595.77
2019-03-05T10:11:05.828Z,99557.88
2019-03-05T10:13:35.599Z,99553.08
2019-03-05T10:16:05.289Z,99554.14
2019-03-05T10:18:35.124Z,99563.68
2019-03-05T10:21:05.570Z,99541.06
2019-03-05T10:23:36.016Z,99541.23
2019-03-05T10:26:05.594Z,99501.85
2019-03-05T10:28:35.370Z,99560.07
2019-03-05T10:31:05.109Z,99525.23
2019-03-05T10:33:35.236Z,99497.31
2019-03-05T10:36:05.379Z,99517.79
2019-03-05T10:38:35.109Z,99489.73
2019-03-05T10:41:04.848Z,99496.03
2019-03-05T10:43:34.568Z,99463.55
2019-03-05T10:46:04.257Z,99484.30
2019-03-05T10:48:34.032Z,99467.06
2019-03-05T10:51:04.480Z,99445.81
2019-03-05T10:53:34.105Z,99452.37
2019-03-05T10:56:03.878Z,99439.25
2019-03-05T10:58:34.541Z,99440.36
2019-03-05T11:01:06.670Z,99468.17
2019-03-05T11:03:36.400Z,99423.69
2019-03-05T11:06:06.637Z,99423.14
2019-03-05T11:08:36.262Z,99419.86
2019-03-05T11:11:13.637Z,99444.70
2019-03-05T11:13:37.362Z,99394.23
2019-03-05T11:16:07.098Z,99397.23
2019-03-05T11:18:36.823Z,99415.80
2019-03-05T11:21:06.867Z,99390.41
2019-03-05T11:23:36.589Z,99393.14
2019-03-05T11:26:06.226Z,99374.04
2019-03-05T11:28:35.946Z,99373.47
2019-03-05T11:31:07.219Z,99367.73
2019-03-05T11:33:36.840Z,99371.28
2019-03-05T11:36:06.678Z,99390.89
2019-03-05T11:38:36.514Z,99396.84
2019-03-05T11:41:06.350Z,99396.32
2019-03-05T11:43:37.135Z,99399.63
2019-03-05T11:46:10.735Z,99400.22
2019-03-05T11:48:40.646Z,99399.14
2019-03-05T11:51:10.393Z,99386.31
2019-03-05T11:53:40.006Z,99406.22
2019-03-05T11:56:12.616Z,99378.63
2019-03-05T11:58:44.470Z,99406.95
2019-03-05T12:01:20.395Z,99416.55
2019-03-05T12:03:54.229Z,99411.69
2019-03-05T12:06:26.010Z,99386.02
2019-03-05T12:08:55.673Z,99391.47
2019-03-05T12:11:25.511Z,99387.94
2019-03-05T12:13:55.134Z,99388.70
2019-03-05T12:16:26.186Z,99371.48
2019-03-05T12:18:55.974Z,99355.64
2019-03-05T12:21:29.636Z,99336.90
2019-03-05T12:24:00.036Z,99335.45
2019-03-05T12:26:31.938Z,99356.08
2019-03-05T12:29:05.383Z,99343.80
2019-03-05T12:31:37.620Z,99348.39
2019-03-05T12:34:09.818Z,99357.03
2019-03-05T12:36:40.186Z,99370.92
2019-03-05T12:39:10.939Z,99396.38
2019-03-05T12:41:40.876Z,99365.27
2019-03-05T12:44:10.510Z,99378.89
2019-03-05T12:46:40.246Z,99382.75
2019-03-05T12:49:10.181Z,99388.47
2019-03-05T12:51:39.793Z,99380.32
2019-03-05T12:54:11.521Z,99386.88
2019-03-05T12:56:41.670Z,99382.48
2019-03-05T12:59:11.573Z,99418.50
2019-03-05T13:01:44.201Z,99405.40
2019-03-05T13:04:17.098Z,99385.48
2019-03-05T13:06:47.202Z,99385.48
2019-03-05T13:09:19.578Z,99392.30
2019-03-05T13:11:52.630Z,99391.22
2019-03-05T13:14:26.835Z,99382.17
2019-03-05T13:16:57.789Z,99370.70
2019-03-05T13:19:27.788Z,99377.12
2019-03-05T13:21:58.129Z,99393.51
2019-03-05T13:24:28.584Z,99388.18
2019-03-05T13:26:59.338Z,99385.23
2019-03-05T13:29:29.066Z,99383.02
2019-03-05T13:32:00.443Z,99364.44
2019-03-05T13:34:30.182Z,99395.86
2019-03-05T13:37:00.880Z,99386.00
2019-03-05T13:39:30.880Z,99408.14
2019-03-05T13:42:00.594Z,99387.38
2019-03-05T13:44:32.067Z,99385.39
2019-03-05T13:47:04.675Z,99396.56
2019-03-05T13:49:45.731Z,99377.20
2019-03-05T13:52:27.845Z,99379.92
2019-03-05T13:55:26.866Z,99389.73
2019-03-05T13:58:02.372Z,99375.56
2019-03-05T14:00:32.208Z,99385.64
2019-03-05T14:03:07.670Z,99390.40
2019-03-05T14:05:55.699Z,99370.48
2019-03-05T14:08:40.350Z,99385.76
2019-03-05T14:11:10.434Z,99377.55
2019-03-05T14:13:40.169Z,99358.76
2019-03-05T14:16:11.415Z,99351.67
2019-03-05T14:18:41.127Z,99370.45
2019-03-05T14:21:10.859Z,99374.16
2019-03-05T14:23:40.585Z,99380.62
2019-03-05T14:26:10.447Z,99385.20
2019-03-05T14:28:40.157Z,99387.63
2019-03-05T14:31:10.107Z,99382.71
2019-03-05T14:33:39.734Z,99382.15
2019-03-05T14:36:09.491Z,99390.30
2019-03-05T14:38:39.332Z,99394.40
2019-03-05T14:41:09.132Z,99395.16
2019-03-05T14:43:38.861Z,99407.41
2019-03-05T14:46:08.563Z,99395.98
2019-03-05T14:48:38.318Z,99396.48
2019-03-05T14:51:09.451Z,99389.08
2019-03-05T14:53:39.234Z,99389.30
2019-03-05T14:56:09.167Z,99396.88
2019-03-05T14:58:40.526Z,99390.84
2019-03-05T15:01:10.329Z,99393.77
2019-03-05T15:03:39.873Z,99392.94
2019-03-05T15:06:11.305Z,99385.78
2019-03-05T15:08:41.785Z,99387.14
2019-03-05T15:11:11.764Z,99392.00
2019-03-05T15:13:42.712Z,99391.50
2019-03-05T15:16:13.904Z,99401.02
2019-03-05T15:18:44.842Z,99414.16
2019-03-05T15:21:14.639Z,99407.47
2019-03-05T15:23:44.236Z,99408.67
2019-03-05T15:26:13.986Z,99410.38
2019-03-05T15:28:55.481Z,99415.80
2019-03-05T15:31:15.078Z,99412.53
2019-03-05T15:33:44.821Z,99411.45
2019-03-05T15:36:23.704Z,99432.91
2019-03-05T15:38:47.041Z,99427.45
2019-03-05T15:41:17.910Z,99439.18
2019-03-05T15:43:47.597Z,99443.23
2019-03-05T15:46:17.257Z,99455.22
2019-03-05T15:48:47.217Z,99459.55
2019-03-05T15:51:17.127Z,99461.99
2019-03-05T15:56:16.763Z,99482.91
2019-03-05T15:58:46.606Z,99492.16
2019-03-05T16:01:22.154Z,99499.23
2019-03-05T16:03:47.606Z,99499.79
2019-03-05T16:06:17.319Z,99519.92
2019-03-05T16:08:47.465Z,99512.31
2019-03-05T16:11:17.288Z,99531.62
2019-03-05T16:13:47.018Z,99529.67
2019-03-05T16:16:18.429Z,99541.62
2019-03-05T16:18:49.155Z,99547.28
2019-03-05T16:21:23.803Z,99548.02
2019-03-05T16:23:53.408Z,99541.47
2019-03-05T16:26:24.672Z,99569.84
2019-03-05T16:28:54.619Z,99562.15
2019-03-05T16:31:26.297Z,99580.26
2019-03-05T16:33:58.777Z,99578.59
2019-03-05T16:36:42.207Z,99608.16
2019-03-05T16:39:19.506Z,99611.36
2019-03-05T16:41:57.414Z,99631.53
2019-03-05T16:44:45.974Z,99628.59
2019-03-05T16:47:23.678Z,99639.60
2019-03-05T16:50:00.877Z,99647.78
2019-03-05T16:52:32.137Z,99648.89
2019-03-05T16:55:03.501Z,99651.91
2019-03-05T16:57:48.153Z,99664.50
2019-03-05T17:00:36.103Z,99680.30
2019-03-05T17:03:14.253Z,99683.57
2019-03-05T17:05:45.690Z,99699.52
2019-03-05T17:08:26.049Z,99699.94
2019-03-05T17:10:59.724Z,99711.80
2019-03-05T17:13:32.186Z,99718.57
2019-03-05T17:16:01.990Z,99714.09
2019-03-05T17:18:31.616Z,99729.05
2019-03-05T17:21:02.045Z,99728.11
2019-03-05T17:23:33.749Z,99740.27
2019-03-05T17:26:04.896Z,99735.78
2019-03-05T17:28:34.838Z,99738.58
2019-03-05T17:31:04.671Z,99739.75
2019-03-05T17:33:34.736Z,99753.98
2019-03-05T17:36:05.932Z,99748.83
2019-03-05T17:38:36.426Z,99752.30
2019-03-05T17:41:06.257Z,99753.72
2019-03-05T17:43:36.085Z,99766.44
2019-03-05T17:46:05.818Z,99768.23
2019-03-05T17:48:36.930Z,99781.02
2019-03-05T17:51:06.912Z,99768.58
2019-03-05T17:53:36.947Z,99773.39
2019-03-05T17:56:06.677Z,99785.09
2019-03-05T17:58:36.534Z,99781.81
2019-03-05T18:01:07.861Z,99784.05
2019-03-05T18:03:37.781Z,99801.48
2019-03-05T18:06:07.540Z,99801.63
2019-03-05T18:08:37.276Z,99804.55
2019-03-05T18:11:07.001Z,99806.16
2019-03-05T18:13:38.070Z,99814.41
2019-03-05T18:16:07.994Z,99812.76
2019-03-05T18:18:37.733Z,99800.28
2019-03-05T18:21:07.348Z,99821.47
2019-03-05T18:23:37.371Z,99821.31
2019-03-05T18:26:07.222Z,99823.80
2019-03-05T18:28:38.636Z,99830.48
2019-03-05T18:31:08.538Z,99832.43
2019-03-05T18:33:38.369Z,99839.41
2019-03-05T18:36:08.395Z,99838.52
2019-03-05T18:38:38.545Z,99837.58
2019-03-05T18:41:08.200Z,99843.94
2019-03-05T18:43:37.872Z,99849.63
2019-03-05T18:46:07.787Z,99854.55
2019-03-05T18:48:39.090Z,99858.80
2019-03-05T18:51:08.830Z,99848.80
2019-03-05T18:53:38.819Z,99867.02
2019-03-05T18:56:09.901Z,99869.17
2019-03-05T18:58:39.557Z,99872.05
2019-03-05T19:01:10.397Z,99869.33
2019-03-05T19:03:40.126Z,99880.50
2019-03-05T19:06:09.795Z,99890.16
2019-03-05T19:08:40.517Z,99890.36
2019-03-05T19:11:10.245Z,99899.66
2019-03-05T19:13:39.965Z,99890.39
2019-03-05T19:16:09.800Z,99895.75
2019-03-05T19:18:39.439Z,99895.06
2019-03-05T19:21:09.367Z,99887.72
2019-03-05T19:23:39.626Z,99901.25
2019-03-05T19:26:09.751Z,99903.00
2019-03-05T19:28:40.681Z,99902.89
2019-03-05T19:31:10.697Z,99911.56
2019-03-05T19:33:43.664Z,99913.02
2019-03-05T19:36:12.872Z,99918.00
2019-03-05T19:38:42.588Z,99927.16
2019-03-05T19:41:13.340Z,99927.36
2019-03-05T19:43:43.079Z,99937.41
2019-03-05T19:46:13.106Z,99944.55
2019-03-05T19:48:44.269Z,99945.16
2019-03-05T19:51:13.907Z,99947.63
2019-03-05T19:53:45.312Z,99944.70
2019-03-05T19:56:16.638Z,99949.48
2019-03-05T19:58:46.514Z,99950.83
2019-03-05T20:01:18.140Z,99961.38
2019-03-05T20:03:48.083Z,99961.69
2019-03-05T20:06:17.601Z,99965.70
2019-03-05T20:08:47.437Z,99960.91
2019-03-05T20:11:17.260Z,99966.37
2019-03-05T20:13:48.221Z,99968.66
2019-03-05T20:16:17.974Z,99970.75
2019-03-05T20:18:50.388Z,99972.81
2019-03-05T20:21:20.522Z,99968.36
2019-03-05T20:23:51.168Z,99971.86
2019-03-05T20:26:23.040Z,99973.20
2019-03-05T20:29:01.939Z,99982.31
2019-03-05T20:31:32.499Z,99971.52
2019-03-05T20:34:04.267Z,99974.96
2019-03-05T20:36:36.009Z,99982.14
2019-03-05T20:39:07.663Z,99985.59
2019-03-05T20:41:40.372Z,99989.67
2019-03-05T20:44:10.254Z,99991.05
2019-03-05T20:46:40.384Z,99987.44
2019-03-05T20:49:11.654Z,99995.63
2019-03-05T20:51:42.164Z,100006.84
2019-03-05T20:54:15.667Z,99998.34
2019-03-05T20:56:48.656Z,100004.88
2019-03-05T20:59:20.472Z,100001.80
2019-03-05T21:01:53.846Z,100007.62
2019-03-05T21:04:28.911Z,100007.59
2019-03-05T21:06:58.906Z,100019.73
2019-03-05T21:09:29.795Z,100021.20
2019-03-05T21:12:00.390Z,100029.47
2019-03-05T21:14:30.108Z,100039.50
2019-03-05T21:16:59.863Z,100034.33
2019-03-05T21:19:29.489Z,100045.81
2019-03-05T21:21:59.270Z,100050.05
2019-03-05T21:24:29.054Z,100060.06
2019-03-05T21:26:58.773Z,100054.75
2019-03-05T21:29:28.401Z,100061.36
2019-03-05T21:31:59.055Z,100048.30
2019-03-05T21:34:28.793Z,100062.39
2019-03-05T21:36:58.511Z,100065.32
2019-03-05T21:39:28.254Z,100061.67
2019-03-05T21:41:57.874Z,100059.20
2019-03-05T21:44:27.699Z,100055.17
2019-03-05T21:46:58.453Z,100058.30
2019-03-05T21:49:28.185Z,100063.37
2019-03-05T21:51:57.807Z,100069.48
2019-03-05T21:54:27.450Z,100081.47
2019-03-05T21:56:57.171Z,100080.30
2019-03-05T21:59:27.923Z,100083.30
2019-03-05T22:01:57.763Z,100079.03
2019-03-05T22:04:27.598Z,100083.30
2019-03-05T22:06:58.757Z,100083.25
2019-03-05T22:09:28.582Z,100082.00
2019-03-05T22:11:58.425Z,100091.42
2019-03-05T22:14:28.246Z,100094.42
2019-03-05T22:16:57.988Z,100089.94
2019-03-05T22:19:27.759Z,100089.16
2019-03-05T22:21:57.335Z,100103.12
2019-03-05T22:24:27.066Z,100098.31
2019-03-05T22:26:56.908Z,100111.55
2019-03-05T22:29:26.420Z,100114.61
2019-03-05T22:31:55.939Z,100116.36
2019-03-05T22:34:25.487Z,100114.08
2019-03-05T22:36:55.124Z,100114.67
2019-03-05T22:39:24.730Z,100112.77
2019-03-05T22:41:54.357Z,100121.02
2019-03-05T22:44:24.192Z,100117.55
2019-03-05T22:46:53.825Z,100126.88
2019-03-05T22:49:23.347Z,100131.25
2019-03-05T22:51:52.976Z,100136.91
2019-03-05T22:54:22.807Z,100123.86
2019-03-05T22:56:55.263Z,100127.71
2019-03-05T22:59:24.923Z,100136.63
2019-03-05T23:01:54.358Z,100131.68
2019-03-05T23:04:29.392Z,100124.05
2019-03-05T23:06:59.331Z,100140.34
2019-03-05T23:09:29.484Z,100140.17
2019-03-05T23:12:00.738Z,100149.90
2019-03-05T23:14:30.669Z,100160.64
2019-03-05T23:17:00.201Z,100159.64
2019-03-05T23:19:29.828Z,100156.48
2019-03-05T23:21:59.553Z,100165.65
2019-03-05T23:24:29.284Z,100171.41
2019-03-05T23:26:59.958Z,100178.38
2019-03-05T23:29:31.299Z,100173.78
2019-03-05T23:32:01.030Z,100173.81
2019-03-05T23:34:31.528Z,100179.20
2019-03-05T23:37:01.547Z,100184.27
2019-03-05T23:39:31.344Z,100178.75
2019-03-05T23:42:00.985Z,100171.28
2019-03-05T23:44:30.709Z,100178.69
2019-03-05T23:47:00.541Z,100173.78
2019-03-05T23:49:30.371Z,100165.17
2019-03-05T23:51:59.904Z,100158.95
2019-03-05T23:54:29.626Z,100165.17
2019-03-05T23:56:59.352Z,100173.70
2019-03-05T23:59:28.980Z,100164.48
